Time;durP1;ratioP1;P1;durP2;ratioP2;P2;SDS_P1;SDS_P2;PMS_P1;PMS_P2;Temp;Humidity;BMP_temperature;BMP_pressure;BME280_temperature;BME280_humidity;BME280_pressure;Samples;Min_cycle;Max_cycle;Signal;HPM_P1;HPM_P2
2021/12/13 00:02:10;;;;;;;56.17;23.10;;;;;;;7.58;100.00;100928.59;5019078;28;20072;-82
2021/12/13 00:04:44;;;;;;;53.35;21.80;;;;;;;7.53;100.00;100933.06;5022613;28;20056;-83
2021/12/13 00:07:19;;;;;;;58.55;22.80;;;;;;;7.47;100.00;100921.56;5023248;28;20025;-83
2021/12/13 00:09:48;;;;;;;61.83;23.48;;;;;;;7.65;100.00;100932.09;5020547;28;20029;-83
2021/12/13 00:12:20;;;;;;;61.17;22.63;;;;;;;7.56;100.00;100931.28;5019571;28;20021;-83
2021/12/13 00:14:50;;;;;;;72.35;23.83;;;;;;;7.61;100.00;100925.91;5020602;28;20372;-83
2021/12/13 00:17:22;;;;;;;59.30;22.83;;;;;;;7.56;100.00;100925.97;5022016;28;20398;-82
2021/12/13 00:19:52;;;;;;;62.80;23.67;;;;;;;7.65;100.00;100929.44;5023423;28;20079;-83
2021/12/13 00:22:24;;;;;;;67.95;25.83;;;;;;;7.62;100.00;100925.03;5023064;28;20026;-81
2021/12/13 00:24:51;;;;;;;64.90;23.20;;;;;;;7.67;100.00;100922.34;5023625;28;20038;-83
2021/12/13 00:27:25;;;;;;;64.15;24.67;;;;;;;7.68;100.00;100918.81;5023517;28;20430;-83
2021/12/13 00:30:21;;;;;;;57.17;23.42;;;;;;;7.67;100.00;100925.00;5022722;28;20028;-84
2021/12/13 00:32:47;;;;;;;60.17;23.65;;;;;;;7.70;100.00;100923.22;5024420;28;20022;-83
2021/12/13 00:35:19;;;;;;;63.60;24.10;;;;;;;7.65;100.00;100937.44;5024386;28;20029;-82
2021/12/13 00:37:51;;;;;;;58.40;22.30;;;;;;;7.69;100.00;100932.06;5023396;28;20025;-83
2021/12/13 00:40:27;;;;;;;52.75;21.70;;;;;;;7.71;100.00;100932.94;5024757;28;20037;-83
2021/12/13 00:43:21;;;;;;;55.17;21.13;;;;;;;7.73;100.00;100938.22;5023875;28;20029;-82
2021/12/13 00:46:06;;;;;;;53.53;21.88;;;;;;;7.66;100.00;100933.84;5017448;28;20045;-83
2021/12/13 00:48:38;;;;;;;59.25;22.48;;;;;;;7.70;100.00;100933.84;5018678;28;20042;-82
2021/12/13 00:51:19;;;;;;;50.13;21.55;;;;;;;7.71;100.00;100946.22;5017770;28;20049;-83
2021/12/13 00:53:53;;;;;;;55.85;21.52;;;;;;;7.81;100.00;100944.38;5019440;28;20034;-81
2021/12/13 00:57:07;;;;;;;60.08;21.85;;;;;;;7.83;100.00;100939.91;5020975;28;20029;-83
2021/12/13 00:59:42;;;;;;;61.97;23.20;;;;;;;7.80;100.00;100949.72;5009383;28;20072;-84
2021/12/13 01:02:18;;;;;;;68.20;24.48;;;;;;;7.79;100.00;100946.16;5026571;28;20286;-84
2021/12/13 01:05:25;;;;;;;86.07;27.75;;;;;;;7.83;100.00;100955.88;5029075;28;20101;-84
2021/12/13 01:08:12;;;;;;;79.57;28.15;;;;;;;7.77;100.00;100949.72;5027908;28;20042;-83
2021/12/13 01:10:53;;;;;;;85.40;27.35;;;;;;;7.87;100.00;100945.22;5026993;28;20025;-83
2021/12/13 01:13:28;;;;;;;89.63;29.42;;;;;;;7.91;100.00;100947.84;5025801;28;20080;-83
2021/12/13 01:16:00;;;;;;;101.30;31.17;;;;;;;7.89;100.00;100954.94;5027191;28;20042;-83
2021/12/13 01:19:02;;;;;;;99.80;31.17;;;;;;;7.83;100.00;100949.69;5026972;28;20156;-83
2021/12/13 01:21:42;;;;;;;97.82;32.05;;;;;;;7.87;100.00;100948.75;5025563;28;20032;-83
2021/12/13 01:24:19;;;;;;;103.88;32.47;;;;;;;7.92;100.00;100954.94;5016344;28;20061;-83
2021/12/13 01:26:48;;;;;;;109.65;32.95;;;;;;;7.94;100.00;100953.13;5018681;28;20030;-83
2021/12/13 01:29:26;;;;;;;106.40;32.28;;;;;;;7.92;100.00;100960.25;5019744;28;20026;-83
2021/12/13 01:32:02;;;;;;;123.38;34.03;;;;;;;7.82;100.00;100961.22;5020178;28;20018;-83
2021/12/13 01:34:33;;;;;;;97.10;31.83;;;;;;;7.92;100.00;100954.94;5022398;28;20071;-84
2021/12/13 01:37:10;;;;;;;109.60;32.97;;;;;;;7.84;100.00;100962.06;5023648;28;20033;-82
2021/12/13 01:39:39;;;;;;;123.38;35.38;;;;;;;7.81;100.00;100964.75;5024230;28;20081;-82
2021/12/13 01:42:12;;;;;;;111.97;32.28;;;;;;;7.86;100.00;100965.59;5023125;28;20052;-83
2021/12/13 01:44:43;;;;;;;104.65;34.63;;;;;;;7.91;100.00;100965.59;5024377;28;20045;-83
2021/12/13 01:47:17;;;;;;;93.72;29.02;;;;;;;7.94;100.00;100969.09;5022795;28;20026;-83
2021/12/13 01:49:47;;;;;;;97.95;30.10;;;;;;;8.05;100.00;100976.09;5022535;28;20132;-83
2021/12/13 01:52:17;;;;;;;90.30;28.38;;;;;;;7.90;100.00;100982.44;5022018;28;20026;-83
2021/12/13 01:54:43;;;;;;;88.78;29.20;;;;;;;7.91;100.00;100984.22;5021659;28;20426;-83
2021/12/13 01:59:48;;;;;;;83.57;27.83;;;;;;;7.97;100.00;100972.63;5018855;28;20032;-83
2021/12/13 02:02:37;;;;;;;70.38;26.65;;;;;;;7.98;100.00;100974.41;5017814;28;20021;-83
2021/12/13 02:05:21;;;;;;;70.88;26.25;;;;;;;7.89;100.00;100976.22;5020010;28;20044;-83
2021/12/13 02:07:54;;;;;;;74.03;25.38;;;;;;;7.88;100.00;100979.78;5020024;28;20076;-83
2021/12/13 02:10:29;;;;;;;76.45;27.70;;;;;;;7.96;100.00;100978.84;5021751;28;20491;-83
2021/12/13 02:13:04;;;;;;;71.25;25.52;;;;;;;7.91;100.00;100977.09;5020906;28;20128;-83
2021/12/13 02:18:29;;;;;;;72.15;24.92;;;;;;;8.03;100.00;100983.22;5005282;28;20394;-83
2021/12/13 02:21:05;;;;;;;64.57;25.60;;;;;;;7.98;100.00;100985.91;5023940;28;20049;-84
2021/12/13 02:23:34;;;;;;;64.68;24.40;;;;;;;8.00;100.00;100984.13;5022785;28;20029;-83
2021/12/13 02:25:59;;;;;;;72.88;23.73;;;;;;;8.01;100.00;100979.69;5023312;28;20114;-84
2021/12/13 02:28:33;;;;;;;73.13;24.55;;;;;;;8.08;100.00;100976.09;5021298;28;20128;-82
2021/12/13 02:31:02;;;;;;;64.55;23.77;;;;;;;8.09;100.00;100990.28;5021902;28;20014;-83
2021/12/13 02:33:39;;;;;;;75.15;26.20;;;;;;;8.03;100.00;100985.88;5023259;28;20026;-83
2021/12/13 02:36:17;;;;;;;71.13;24.33;;;;;;;8.14;100.00;100991.97;5017812;28;20039;-82
2021/12/13 02:38:47;;;;;;;80.55;25.35;;;;;;;8.04;100.00;100990.31;5018337;28;20026;-83
2021/12/13 02:41:14;;;;;;;73.72;25.20;;;;;;;8.00;100.00;100993.88;5018096;28;20029;-83
2021/12/13 02:43:44;;;;;;;74.78;24.73;;;;;;;7.98;100.00;100990.34;5019825;28;20041;-83
2021/12/13 02:46:14;;;;;;;72.50;25.83;;;;;;;8.01;100.00;100998.31;5020584;28;20033;-82
2021/12/13 02:48:54;;;;;;;78.60;26.40;;;;;;;7.96;100.00;101001.00;5020286;28;20109;-83
2021/12/13 02:51:25;;;;;;;79.15;26.85;;;;;;;8.03;100.00;100993.84;5031081;23;20085;-75
2021/12/13 02:54:14;;;;;;;81.57;27.50;;;;;;;8.00;100.00;100993.88;4994145;28;20125;-76
2021/12/13 02:56:45;;;;;;;82.82;25.38;;;;;;;7.91;100.00;100998.34;4993756;28;20442;-76
2021/12/13 02:59:12;;;;;;;88.28;27.33;;;;;;;7.97;100.00;100999.22;4993796;28;20026;-76
2021/12/13 03:01:50;;;;;;;83.72;28.25;;;;;;;7.99;100.00;100997.44;4993737;28;20483;-76
2021/12/13 03:04:19;;;;;;;94.88;28.67;;;;;;;7.90;100.00;100993.94;4994089;28;20060;-76
2021/12/13 03:06:54;;;;;;;91.05;28.00;;;;;;;7.91;100.00;100998.34;4994030;28;20023;-76
2021/12/13 03:09:24;;;;;;;91.03;27.77;;;;;;;8.02;100.00;100992.06;4994118;28;20031;-76
2021/12/13 03:11:53;;;;;;;89.65;29.05;;;;;;;7.88;100.00;100993.09;4993675;28;20450;-76
2021/12/13 03:14:23;;;;;;;86.22;27.55;;;;;;;7.95;100.00;100996.56;4993688;28;20027;-76
2021/12/13 03:16:55;;;;;;;96.00;28.70;;;;;;;7.87;100.00;100998.41;4994474;28;20035;-76
2021/12/13 03:19:53;;;;;;;97.32;29.70;;;;;;;7.92;100.00;100996.59;4993818;28;20022;-77
2021/12/13 03:22:38;;;;;;;93.88;28.77;;;;;;;7.90;100.00;101001.03;4994115;28;20030;-76
2021/12/13 03:25:14;;;;;;;92.93;29.55;;;;;;;7.93;100.00;101001.91;4993597;28;20505;-76
2021/12/13 03:28:13;;;;;;;89.70;28.20;;;;;;;7.96;100.00;101003.66;4993831;28;20049;-76
2021/12/13 03:30:58;;;;;;;94.13;28.17;;;;;;;7.93;100.00;101003.69;4993794;28;20023;-77
2021/12/13 03:33:43;;;;;;;80.45;27.33;;;;;;;7.99;100.00;101011.59;4992683;28;20029;-77
2021/12/13 03:36:14;;;;;;;81.20;26.40;;;;;;;7.94;100.00;101011.63;4993898;28;20035;-77
2021/12/13 03:38:45;;;;;;;82.97;26.75;;;;;;;7.87;100.00;101011.69;4994235;28;20026;-77
2021/12/13 03:41:16;;;;;;;75.82;25.35;;;;;;;7.93;100.00;101015.22;4997841;28;20390;-77
2021/12/13 03:43:47;;;;;;;83.25;28.17;;;;;;;7.88;100.00;101010.81;4997673;28;20022;-77
2021/12/13 03:46:15;;;;;;;83.70;26.75;;;;;;;7.89;100.00;101008.13;4997877;28;20427;-77
2021/12/13 03:48:43;;;;;;;93.68;28.38;;;;;;;7.92;100.00;101008.13;4997927;28;20101;-77
2021/12/13 03:51:15;;;;;;;91.55;28.48;;;;;;;7.88;100.00;101017.03;4998486;28;20018;-77
2021/12/13 03:53:44;;;;;;;94.72;28.42;;;;;;;7.80;100.00;101014.41;4999004;28;20030;-77
2021/12/13 03:56:14;;;;;;;97.72;28.67;;;;;;;7.92;100.00;101020.53;4997676;28;20049;-78
2021/12/13 03:58:44;;;;;;;89.15;28.55;;;;;;;7.90;100.00;101025.88;4997512;28;20171;-77
2021/12/13 04:01:23;;;;;;;89.47;28.38;;;;;;;7.83;100.00;101027.66;4998190;28;20026;-77
2021/12/13 04:03:52;;;;;;;90.30;27.58;;;;;;;7.83;100.00;101022.34;4997834;28;20101;-77
2021/12/13 04:06:19;;;;;;;81.85;27.63;;;;;;;7.78;100.00;101018.84;4997583;28;20040;-77
2021/12/13 04:08:47;;;;;;;89.15;26.95;;;;;;;7.85;100.00;101019.69;4997493;28;20493;-77
2021/12/13 04:11:14;;;;;;;82.18;27.98;;;;;;;7.81;100.00;101025.91;4997713;28;20069;-76
2021/12/13 04:13:45;;;;;;;79.00;25.75;;;;;;;7.80;100.00;101026.81;4997721;28;20026;-77
2021/12/13 04:16:34;;;;;;;73.57;26.13;;;;;;;7.83;100.00;101024.16;4997855;28;20113;-77
2021/12/13 04:21:37;;;;;;;78.28;25.92;;;;;;;7.81;100.00;101029.47;4997646;28;20037;-77
2021/12/13 04:24:07;;;;;;;56.63;21.67;;;;;;;7.90;100.00;101036.50;4997760;28;20045;-77
2021/12/13 04:26:40;;;;;;;59.92;22.38;;;;;;;7.88;100.00;101035.63;4996986;28;20026;-77
2021/12/13 04:29:11;;;;;;;;;;;;;;;7.83;100.00;101045.41;4999779;28;20026;-78
2021/12/13 04:31:37;;;;;;;63.38;22.83;;;;;;;7.97;100.00;101041.75;4997641;28;19910;-78
2021/12/13 04:34:05;;;;;;;61.30;22.77;;;;;;;7.99;100.00;101040.00;4998092;28;20475;-79
2021/12/13 04:36:44;;;;;;;55.13;21.77;;;;;;;7.99;100.00;101034.69;4998749;28;20034;-79
2021/12/13 04:39:41;;;;;;;59.70;23.88;;;;;;;8.04;100.00;101038.19;4995582;28;20027;-78
2021/12/13 04:42:18;;;;;;;59.08;23.75;;;;;;;8.10;100.00;101035.47;4988132;28;20581;-78
2021/12/13 04:45:15;;;;;;;50.92;21.27;;;;;;;8.19;100.00;101052.25;4996972;28;20030;-78
2021/12/13 04:47:49;;;;;;;47.38;20.83;;;;;;;8.12;100.00;101039.00;4995950;28;20491;-78
2021/12/13 04:50:29;;;;;;;47.67;19.00;;;;;;;8.05;100.00;101039.94;4996708;28;20031;-79
2021/12/13 04:52:56;;;;;;;40.92;18.63;;;;;;;8.08;100.00;101045.25;4999551;28;20026;-79
2021/12/13 04:55:27;;;;;;;46.00;18.48;;;;;;;8.07;100.00;101054.09;5000795;28;20037;-79
2021/12/13 04:57:56;;;;;;;39.75;17.08;;;;;;;8.14;100.00;101049.63;5000076;28;20022;-79
2021/12/13 05:00:24;;;;;;;40.70;17.63;;;;;;;7.99;100.00;101061.28;4998057;28;20027;-77
2021/12/13 05:02:57;;;;;;;38.90;17.17;;;;;;;8.09;100.00;101051.44;4995900;28;20022;-77
2021/12/13 05:05:23;;;;;;;35.67;15.40;;;;;;;8.08;100.00;101055.88;4997209;28;20030;-78
2021/12/13 05:07:51;;;;;;;32.85;15.43;;;;;;;8.04;100.00;101062.13;4997008;28;20045;-77
2021/12/13 05:10:17;;;;;;;34.38;15.63;;;;;;;8.13;100.00;101071.81;4997444;28;20414;-78
2021/12/13 05:13:06;;;;;;;35.08;14.93;;;;;;;8.14;100.00;101070.91;4997262;28;20097;-76
2021/12/13 05:15:35;;;;;;;32.90;14.75;;;;;;;8.11;100.00;101076.25;4996360;28;20029;-79
2021/12/13 05:18:05;;;;;;;33.38;14.77;;;;;;;8.02;100.00;101066.56;4995136;28;20041;-78
2021/12/13 05:20:35;;;;;;;35.00;15.57;;;;;;;8.01;100.00;101070.13;4996694;28;20094;-78
2021/12/13 05:23:19;;;;;;;36.58;16.13;;;;;;;7.97;100.00;101079.00;4996973;28;20023;-77
2021/12/13 05:25:51;;;;;;;35.55;16.75;;;;;;;7.94;100.00;101078.13;4997834;28;20033;-78
2021/12/13 05:28:21;;;;;;;36.03;15.80;;;;;;;8.02;100.00;101079.84;4996586;28;20061;-77
2021/12/13 05:30:57;;;;;;;39.33;15.65;;;;;;;8.01;100.00;101076.34;4995678;28;20030;-78
2021/12/13 05:33:24;;;;;;;32.75;15.65;;;;;;;7.99;100.00;101077.22;4997152;28;20034;-78
2021/12/13 05:35:53;;;;;;;35.72;15.15;;;;;;;8.07;100.00;101075.38;4996306;28;20030;-77
2021/12/13 05:38:44;;;;;;;36.25;16.52;;;;;;;7.98;100.00;101075.47;5002234;28;20101;-79
2021/12/13 05:41:19;;;;;;;33.63;15.77;;;;;;;7.93;100.00;101070.16;5000308;28;20038;-79
2021/12/13 05:44:10;;;;;;;36.45;16.08;;;;;;;7.89;100.00;101077.28;5009008;28;20113;-79
2021/12/13 05:46:44;;;;;;;39.88;15.98;;;;;;;7.91;100.00;101079.94;5005022;28;20038;-79
2021/12/13 05:49:19;;;;;;;39.97;17.13;;;;;;;7.97;100.00;101085.19;5006814;28;20057;-79
2021/12/13 05:51:49;;;;;;;38.85;15.73;;;;;;;7.88;100.00;101085.28;5006916;28;20053;-78
2021/12/13 05:54:23;;;;;;;34.38;15.80;;;;;;;7.81;100.00;101079.97;5000617;28;20594;-78
2021/12/13 05:56:53;;;;;;;35.80;16.63;;;;;;;7.79;100.00;101078.22;4996056;28;20486;-78
2021/12/13 05:59:35;;;;;;;36.17;17.27;;;;;;;7.72;100.00;101082.69;4997272;28;20034;-78
2021/12/13 06:02:17;;;;;;;37.70;17.92;;;;;;;7.72;100.00;101080.03;4996413;28;20390;-78
2021/12/13 06:05:06;;;;;;;43.55;18.55;;;;;;;7.86;100.00;101082.59;5003611;28;20022;-79
2021/12/13 06:07:39;;;;;;;46.65;18.90;;;;;;;7.79;100.00;101092.41;5007199;28;20470;-79
2021/12/13 06:10:18;;;;;;;40.97;18.52;;;;;;;7.91;100.00;101091.44;5008357;28;20082;-78
2021/12/13 06:12:56;;;;;;;44.97;19.88;;;;;;;7.88;100.00;101096.81;5008404;28;20019;-78
2021/12/13 06:15:33;;;;;;;47.72;20.80;;;;;;;7.83;100.00;101103.91;5008380;28;20164;-79
2021/12/13 06:18:01;;;;;;;47.35;21.10;;;;;;;7.77;100.00;101109.25;5008563;28;20026;-79
2021/12/13 06:20:31;;;;;;;53.30;21.33;;;;;;;7.80;100.00;101103.94;5006936;28;20113;-79
2021/12/13 06:23:06;;;;;;;48.55;21.35;;;;;;;7.79;100.00;101104.81;5008796;28;20038;-78
2021/12/13 06:25:32;;;;;;;51.03;22.50;;;;;;;7.80;100.00;101104.81;5009043;28;20081;-78
2021/12/13 06:28:00;;;;;;;48.20;21.70;;;;;;;7.81;100.00;101109.22;5006583;28;20057;-78
2021/12/13 06:30:32;;;;;;;47.33;21.63;;;;;;;7.76;100.00;101119.00;5006710;28;20030;-78
2021/12/13 06:33:01;;;;;;;48.83;21.73;;;;;;;7.76;100.00;101112.78;4997226;28;20383;-78
2021/12/13 06:35:37;;;;;;;48.28;22.73;;;;;;;7.73;100.00;101118.16;4995783;28;20030;-77
2021/12/13 06:38:24;;;;;;;47.03;22.90;;;;;;;7.76;100.00;101113.69;4993817;28;20026;-78
2021/12/13 06:41:00;;;;;;;53.17;22.77;;;;;;;7.67;100.00;101116.38;5002003;28;20018;-78
2021/12/13 06:43:36;;;;;;;54.90;24.10;;;;;;;7.68;100.00;101115.50;5004137;28;20479;-78
2021/12/13 06:46:08;;;;;;;50.20;24.08;;;;;;;7.69;100.00;101120.81;5004893;28;20038;-78
2021/12/13 06:48:41;;;;;;;61.97;25.38;;;;;;;7.63;100.00;101118.16;5005556;28;20094;-80
2021/12/13 06:51:11;;;;;;;56.90;23.63;;;;;;;7.62;100.00;101120.84;5005555;28;20022;-81
2021/12/13 06:53:36;;;;;;;54.47;24.48;;;;;;;7.62;100.00;101127.06;5004402;28;20032;-80
2021/12/13 06:56:26;;;;;;;55.70;24.65;;;;;;;7.60;100.00;101123.53;5005648;28;20030;-80
2021/12/13 06:58:58;;;;;;;60.47;25.10;;;;;;;7.59;100.00;101129.72;5004906;28;20030;-80
2021/12/13 07:01:27;;;;;;;58.42;25.35;;;;;;;7.59;100.00;101127.06;5004215;28;20394;-79
2021/12/13 07:03:58;;;;;;;62.97;25.75;;;;;;;7.62;100.00;101132.38;5005133;28;20053;-79
2021/12/13 07:06:24;;;;;;;59.30;25.95;;;;;;;7.62;100.00;101132.38;5004697;28;20022;-79
2021/12/13 07:09:04;;;;;;;67.35;28.25;;;;;;;7.58;100.00;101130.59;5005329;28;20029;-80
2021/12/13 07:11:49;;;;;;;69.80;27.67;;;;;;;7.63;100.00;101134.13;4993812;28;20506;-79
2021/12/13 07:14:16;;;;;;;72.50;28.00;;;;;;;7.60;100.00;101144.78;4994530;28;20516;-79
2021/12/13 07:16:47;;;;;;;68.95;28.23;;;;;;;7.60;100.00;101144.78;4999165;28;20025;-80
2021/12/13 07:19:31;;;;;;;68.63;29.55;;;;;;;7.54;100.00;101144.78;5009892;28;20022;-79
2021/12/13 07:22:00;;;;;;;69.32;28.38;;;;;;;7.61;100.00;101141.22;5009925;28;20050;-79
2021/12/13 07:24:42;;;;;;;71.53;29.67;;;;;;;7.63;100.00;101152.72;5007995;28;20029;-79
2021/12/13 07:27:15;;;;;;;72.28;29.58;;;;;;;7.55;100.00;101151.88;5008299;28;20086;-79
2021/12/13 07:29:49;;;;;;;70.32;29.20;;;;;;;7.49;100.00;101151.03;5009866;28;20030;-79
2021/12/13 07:32:29;;;;;;;69.13;28.98;;;;;;;7.48;100.00;101153.66;5009157;28;20077;-80
2021/12/13 07:35:07;;;;;;;77.20;31.17;;;;;;;7.48;100.00;101151.91;5009760;28;20041;-79
2021/12/13 07:37:50;;;;;;;70.13;29.50;;;;;;;7.46;100.00;101159.00;5008048;28;20053;-79
2021/12/13 07:40:19;;;;;;;76.20;30.52;;;;;;;7.43;100.00;101151.03;5009525;28;20046;-79
2021/12/13 07:42:52;;;;;;;75.35;30.35;;;;;;;7.44;100.00;101149.25;5009291;28;20030;-79
2021/12/13 07:45:27;;;;;;;69.97;29.63;;;;;;;7.42;100.00;101157.22;5009488;28;20053;-79
2021/12/13 07:47:53;;;;;;;67.72;29.77;;;;;;;7.44;100.00;101150.16;5005609;28;20026;-79
2021/12/13 07:50:21;;;;;;;66.40;28.13;;;;;;;7.49;100.00;101159.00;4996508;28;20113;-79
2021/12/13 07:52:55;;;;;;;66.43;28.23;;;;;;;7.38;100.00;101163.44;4997497;28;20026;-78
2021/12/13 07:55:26;;;;;;;71.82;30.77;;;;;;;7.38;100.00;101163.44;5008383;28;20049;-79
2021/12/13 07:57:53;;;;;;;63.88;28.00;;;;;;;7.36;100.00;101167.88;5007781;28;20023;-79
2021/12/13 08:00:24;;;;;;;67.95;28.92;;;;;;;7.39;100.00;101167.88;5010323;28;20489;-79
2021/12/13 08:03:03;;;;;;;75.53;29.58;;;;;;;7.37;100.00;101170.53;5008515;28;20022;-79
2021/12/13 08:05:38;;;;;;;70.93;29.90;;;;;;;7.36;100.00;101165.22;5008462;28;20073;-79
2021/12/13 08:08:06;;;;;;;73.47;29.77;;;;;;;7.38;100.00;101161.69;5008375;28;20023;-79
2021/12/13 08:10:35;;;;;;;75.90;32.15;;;;;;;7.31;100.00;101181.19;5008837;28;20022;-80
2021/12/13 08:13:13;;;;;;;74.65;29.67;;;;;;;7.28;100.00;101182.94;5008340;28;20023;-79
2021/12/13 08:15:58;;;;;;;75.45;31.52;;;;;;;7.29;100.00;101187.38;5007979;28;20077;-79
2021/12/13 08:18:40;;;;;;;75.75;31.27;;;;;;;7.28;100.00;101189.16;5009478;28;20053;-79
2021/12/13 08:21:20;;;;;;;76.05;30.92;;;;;;;7.26;100.00;101191.81;5007180;28;20034;-79
2021/12/13 08:23:52;;;;;;;80.43;31.15;;;;;;;7.31;100.00;101190.91;5008561;28;20053;-79
2021/12/13 08:26:25;;;;;;;84.57;32.05;;;;;;;7.26;100.00;101189.16;5004132;28;20035;-79
2021/12/13 08:28:52;;;;;;;90.05;33.65;;;;;;;7.27;100.00;101203.31;4995889;28;20030;-78
2021/12/13 08:31:24;;;;;;;78.47;32.45;;;;;;;7.28;100.00;101193.56;5002126;28;20057;-79
2021/12/13 08:33:57;;;;;;;88.28;33.50;;;;;;;7.28;100.00;101202.44;5008053;28;20030;-79
2021/12/13 08:36:36;;;;;;;83.47;33.72;;;;;;;7.29;100.00;101203.31;5009060;28;20109;-79
2021/12/13 08:39:25;;;;;;;91.65;35.67;;;;;;;7.24;100.00;101204.19;5007300;28;20032;-79
2021/12/13 08:41:59;;;;;;;95.22;34.63;;;;;;;7.24;100.00;101201.53;5007990;28;20030;-79
2021/12/13 08:44:30;;;;;;;79.63;31.33;;;;;;;7.24;100.00;101204.19;5009105;28;20038;-79
2021/12/13 08:47:16;;;;;;;85.57;33.47;;;;;;;7.23;100.00;101205.09;5007517;28;20030;-79
2021/12/13 08:49:51;;;;;;;78.90;34.58;;;;;;;7.20;100.00;101199.78;5007975;28;20022;-79
2021/12/13 08:52:28;;;;;;;80.40;32.47;;;;;;;7.22;100.00;101198.00;5046680;23;20129;-77
2021/12/13 08:54:56;;;;;;;88.28;34.63;;;;;;;7.25;100.00;101203.31;4996359;28;20026;-77
2021/12/13 08:57:44;;;;;;;84.90;33.80;;;;;;;7.25;100.00;101203.31;4994702;28;20441;-77
2021/12/13 09:00:12;;;;;;;81.78;34.17;;;;;;;7.22;100.00;101216.59;4994610;28;20022;-76
2021/12/13 09:02:42;;;;;;;89.70;36.28;;;;;;;7.17;100.00;101221.03;4996156;28;20030;-77
2021/12/13 09:05:12;;;;;;;86.32;36.60;;;;;;;7.20;100.00;101221.03;4995907;28;20483;-77
2021/12/13 09:07:54;;;;;;;95.10;36.28;;;;;;;7.18;100.00;101227.22;4994677;28;20487;-77
2021/12/13 09:10:33;;;;;;;94.00;37.20;;;;;;;7.21;100.00;101233.44;4996286;28;20106;-77
2021/12/13 09:12:58;;;;;;;91.32;36.50;;;;;;;7.23;100.00;101217.50;4996641;28;20022;-77
2021/12/13 09:15:28;;;;;;;85.65;35.15;;;;;;;7.19;100.00;101229.00;4996070;28;20149;-77
2021/12/13 09:17:53;;;;;;;92.38;37.00;;;;;;;7.18;100.00;101230.78;4995832;28;20372;-77
2021/12/13 09:20:54;;;;;;;83.57;35.15;;;;;;;7.16;100.00;101232.56;4994423;28;20034;-77
2021/12/13 09:23:49;;;;;;;98.10;37.60;;;;;;;7.17;100.00;101236.97;4963288;28;20116;-77
2021/12/13 09:26:20;;;;;;;94.80;37.00;;;;;;;7.17;100.00;101242.28;4993373;28;20037;-77
2021/12/13 09:28:48;;;;;;;92.63;38.80;;;;;;;7.14;100.00;101237.84;4995343;28;20034;-77
2021/12/13 09:31:26;;;;;;;102.82;40.08;;;;;;;7.19;100.00;101240.50;4995310;28;20018;-77
2021/12/13 09:33:57;;;;;;;94.53;37.95;;;;;;;7.31;100.00;101238.75;4994560;28;20033;-77
2021/12/13 09:36:28;;;;;;;91.25;37.58;;;;;;;7.19;100.00;101245.81;4994647;28;20033;-77
2021/12/13 09:39:04;;;;;;;100.75;41.13;;;;;;;7.22;100.00;101245.81;4993877;28;20030;-77
2021/12/13 09:41:46;;;;;;;92.72;39.92;;;;;;;7.21;100.00;101243.19;4993830;28;20026;-77
2021/12/13 09:44:11;;;;;;;96.22;37.97;;;;;;;7.21;100.00;101238.75;4993923;28;20034;-77
2021/12/13 09:46:44;;;;;;;88.25;36.70;;;;;;;7.21;100.00;101248.50;4995105;28;20045;-77
2021/12/13 09:49:19;;;;;;;92.18;37.47;;;;;;;7.22;100.00;101245.81;4995592;28;20109;-77
2021/12/13 09:51:51;;;;;;;88.13;36.63;;;;;;;7.25;100.00;101235.19;4997180;28;20126;-77
2021/12/13 09:54:21;;;;;;;90.97;35.53;;;;;;;7.22;100.00;101240.50;4995442;28;20022;-77
2021/12/13 09:56:50;;;;;;;93.57;37.33;;;;;;;7.23;100.00;101242.28;4995307;28;20028;-77
2021/12/13 09:59:25;;;;;;;90.22;35.50;;;;;;;7.21;100.00;101244.06;4993470;28;20364;-77
2021/12/13 10:01:51;;;;;;;90.78;37.20;;;;;;;7.20;100.00;101246.72;4995317;28;20390;-77
2021/12/13 10:04:28;;;;;;;90.80;38.03;;;;;;;7.23;100.00;101252.91;4993531;28;20113;-77
2021/12/13 10:07:00;;;;;;;81.95;35.03;;;;;;;7.23;100.00;101246.72;4994665;28;20418;-77
2021/12/13 10:09:34;;;;;;;80.38;34.55;;;;;;;7.29;100.00;101245.84;4994525;28;20030;-77
2021/12/13 10:12:14;;;;;;;79.20;36.00;;;;;;;7.21;100.00;101248.50;4994902;28;20030;-77
2021/12/13 10:14:52;;;;;;;89.13;36.60;;;;;;;7.28;100.00;101249.34;4993308;28;20057;-77
2021/12/13 10:17:20;;;;;;;85.13;34.67;;;;;;;7.29;100.00;101244.06;4994536;28;20118;-77
2021/12/13 10:19:57;;;;;;;76.85;34.45;;;;;;;7.30;100.00;101245.81;4993122;28;20030;-77
2021/12/13 10:22:29;;;;;;;78.30;33.92;;;;;;;7.29;100.00;101244.06;4993128;28;20022;-77
2021/12/13 10:25:10;;;;;;;74.87;33.20;;;;;;;7.25;100.00;101251.13;4994789;28;20034;-77
2021/12/13 10:27:36;;;;;;;73.38;34.63;;;;;;;7.28;100.00;101260.00;4994691;28;20346;-77
2021/12/13 10:30:06;;;;;;;73.78;32.83;;;;;;;7.30;100.00;101245.81;4994800;28;20110;-77
2021/12/13 10:32:35;;;;;;;76.03;33.08;;;;;;;7.29;100.00;101246.72;4994765;28;20022;-78
2021/12/13 10:35:24;;;;;;;72.88;31.90;;;;;;;7.25;100.00;101243.16;4994233;28;20093;-77
2021/12/13 10:37:54;;;;;;;69.45;32.03;;;;;;;7.26;100.00;101242.28;4994024;28;20394;-77
2021/12/13 10:40:25;;;;;;;73.90;33.15;;;;;;;7.23;100.00;101242.28;4992904;28;20104;-77
2021/12/13 10:42:58;;;;;;;71.75;31.60;;;;;;;7.25;100.00;101239.63;4994083;28;20529;-77
2021/12/13 10:45:28;;;;;;;72.70;33.40;;;;;;;7.22;100.00;101245.81;4992756;28;20034;-77
2021/12/13 10:47:57;;;;;;;71.43;32.13;;;;;;;7.32;100.00;101238.72;4993764;28;20105;-77
2021/12/13 10:50:28;;;;;;;68.45;31.65;;;;;;;7.30;100.00;101236.94;4993611;28;20045;-77
2021/12/13 10:52:54;;;;;;;64.13;30.20;;;;;;;7.28;100.00;101234.31;4992632;28;20117;-77
2021/12/13 10:55:30;;;;;;;68.88;31.55;;;;;;;7.24;100.00;101243.19;4992666;28;20032;-77
2021/12/13 10:57:56;;;;;;;64.97;31.63;;;;;;;7.27;100.00;101232.53;4993813;28;20033;-77
2021/12/13 11:00:27;;;;;;;65.32;29.98;;;;;;;7.22;100.00;101229.88;4992534;28;20442;-77
2021/12/13 11:02:58;;;;;;;65.38;29.95;;;;;;;7.25;100.00;101231.66;4994146;28;20027;-77
2021/12/13 11:05:25;;;;;;;69.22;31.05;;;;;;;7.33;100.00;101231.66;4994225;28;20073;-77
2021/12/13 11:07:51;;;;;;;62.63;28.60;;;;;;;7.30;100.00;101231.63;4995182;28;20033;-77
2021/12/13 11:10:25;;;;;;;62.03;28.83;;;;;;;7.25;100.00;101237.84;4994657;28;20031;-77
2021/12/13 11:12:52;;;;;;;;;;;;;;;7.24;100.00;101243.19;4994570;28;20022;-77
2021/12/13 11:15:27;;;;;;;63.03;28.85;;;;;;;7.24;100.00;101244.03;4994042;28;19917;-77
2021/12/13 11:17:54;;;;;;;62.20;30.25;;;;;;;7.25;100.00;101245.81;4992438;28;20105;-77
2021/12/13 11:20:33;;;;;;;53.90;27.63;;;;;;;7.25;100.00;101248.47;4992660;28;20422;-77
2021/12/13 11:22:59;;;;;;;55.20;27.95;;;;;;;7.24;100.00;101238.72;4993895;28;20076;-77
2021/12/13 11:25:39;;;;;;;61.90;27.77;;;;;;;7.33;100.00;101239.63;4993598;28;20054;-77
2021/12/13 11:28:06;;;;;;;57.85;28.25;;;;;;;7.25;100.00;101240.50;4993602;28;20026;-77
2021/12/13 11:30:35;;;;;;;59.20;28.10;;;;;;;7.23;100.00;101236.97;4993813;28;20053;-77
2021/12/13 11:33:10;;;;;;;54.35;26.88;;;;;;;7.31;100.00;101233.41;4992350;28;20474;-77
2021/12/13 11:36:07;;;;;;;54.95;26.55;;;;;;;7.24;100.00;101237.88;4992348;28;20077;-77
2021/12/13 11:38:51;;;;;;;54.33;26.13;;;;;;;7.30;100.00;101237.84;4993486;28;20023;-77
2021/12/13 11:41:42;;;;;;;;;;;;;;;7.22;100.00;101235.19;4992660;28;20045;-77
2021/12/13 11:44:25;;;;;;;53.83;26.23;;;;;;;7.25;100.00;101237.84;4994054;28;19913;-77
2021/12/13 11:47:11;;;;;;;51.22;26.05;;;;;;;7.22;100.00;101234.31;4994031;28;20030;-77
2021/12/13 11:49:57;;;;;;;50.78;25.58;;;;;;;7.35;100.00;101235.19;4993425;28;20101;-77
2021/12/13 11:52:25;;;;;;;48.35;24.98;;;;;;;7.29;100.00;101232.53;4992038;28;20434;-77